createdAt,value
2023-08-30T00:02:28.085Z,9.46
2023-08-30T00:07:32.211Z,9.74
2023-08-30T00:12:36.412Z,10.01
2023-08-30T00:17:41.103Z,10.07
2023-08-30T00:22:45.034Z,10.22
2023-08-30T00:27:49.156Z,10.56
2023-08-30T00:32:53.118Z,10.99
2023-08-30T00:37:57.162Z,11.33
2023-08-30T00:43:01.514Z,11.57
2023-08-30T00:48:06.781Z,11.85
2023-08-30T00:53:13.752Z,12.14
2023-08-30T00:58:17.876Z,12.40
2023-08-30T01:03:23.599Z,12.68
2023-08-30T01:08:28.761Z,12.92
2023-08-30T01:13:39.914Z,13.18
2023-08-30T01:18:45.049Z,13.39
2023-08-30T01:24:02.296Z,13.82
2023-08-30T01:29:07.526Z,13.98
2023-08-30T01:34:11.938Z,14.28
2023-08-30T01:39:17.994Z,14.61
2023-08-30T01:44:22.681Z,14.88
2023-08-30T01:49:34.186Z,15.29
2023-08-30T01:54:39.733Z,15.42
2023-08-30T01:59:43.664Z,15.76
2023-08-30T02:04:48.613Z,16.25
2023-08-30T02:10:03.321Z,16.55
2023-08-30T02:15:10.873Z,16.70
2023-08-30T02:20:14.955Z,16.85
2023-08-30T02:25:19.124Z,16.86
2023-08-30T02:30:24.608Z,17.31
2023-08-30T02:35:30.933Z,17.33
2023-08-30T02:40:34.846Z,17.46
2023-08-30T02:45:39.030Z,17.54
2023-08-30T02:50:43.239Z,17.65
2023-08-30T02:55:52.332Z,17.75
2023-08-30T03:00:56.277Z,17.63
2023-08-30T03:06:00.471Z,17.63
2023-08-30T03:11:15.682Z,17.60
2023-08-30T03:16:24.890Z,17.76
2023-08-30T03:21:29.985Z,17.57
2023-08-30T03:26:35.316Z,17.32
2023-08-30T03:31:40.323Z,17.59
2023-08-30T03:36:46.051Z,18.03
2023-08-30T03:41:52.176Z,18.44
2023-08-30T03:46:57.941Z,18.85
2023-08-30T03:52:02.363Z,19.28
2023-08-30T03:57:06.601Z,19.59
2023-08-30T04:02:10.788Z,19.85
2023-08-30T04:07:15.791Z,20.11
2023-08-30T04:12:19.917Z,20.44
2023-08-30T04:17:25.717Z,20.45
2023-08-30T04:22:30.807Z,20.94
2023-08-30T04:27:34.832Z,21.04
2023-08-30T04:32:38.930Z,21.27
2023-08-30T04:37:44.748Z,21.47
2023-08-30T04:42:48.702Z,21.67
2023-08-30T04:47:52.937Z,21.49
2023-08-30T04:52:58.157Z,21.83
2023-08-30T04:58:02.501Z,21.88
2023-08-30T05:03:11.252Z,22.00
2023-08-30T05:08:15.484Z,22.09
2023-08-30T05:13:19.768Z,22.07
2023-08-30T05:18:23.622Z,22.11
2023-08-30T05:23:27.686Z,22.09
2023-08-30T05:28:32.489Z,22.12
2023-08-30T05:33:39.305Z,22.23
2023-08-30T05:39:02.110Z,22.26
2023-08-30T05:44:21.390Z,22.17
2023-08-30T05:49:25.344Z,22.04
2023-08-30T05:54:31.474Z,22.04
2023-08-30T05:59:36.861Z,22.05
2023-08-30T06:04:41.028Z,21.87
2023-08-30T06:09:46.256Z,21.53
2023-08-30T06:14:54.170Z,21.77
2023-08-30T06:19:58.135Z,21.84
2023-08-30T06:25:02.408Z,21.88
2023-08-30T06:30:07.846Z,21.86
2023-08-30T06:35:11.961Z,21.78
2023-08-30T06:40:16.194Z,21.76
2023-08-30T06:45:21.315Z,21.56
2023-08-30T06:50:25.158Z,21.78
2023-08-30T06:55:29.419Z,21.90
2023-08-30T07:00:33.643Z,21.81
2023-08-30T07:05:39.419Z,21.73
2023-08-30T07:10:43.719Z,21.76
2023-08-30T07:15:48.507Z,22.29
2023-08-30T07:20:55.771Z,22.49
2023-08-30T07:26:00.152Z,22.91
2023-08-30T07:31:05.603Z,23.21
2023-08-30T07:36:13.659Z,23.23
2023-08-30T07:41:18.362Z,23.21
2023-08-30T07:46:22.421Z,22.92
2023-08-30T07:51:26.417Z,22.97
2023-08-30T07:56:31.193Z,23.63
2023-08-30T08:01:35.105Z,24.41
2023-08-30T08:06:40.983Z,24.19
2023-08-30T08:11:45.626Z,25.51
2023-08-30T08:16:49.596Z,27.47
2023-08-30T08:21:55.659Z,27.62
2023-08-30T08:26:59.917Z,28.45
2023-08-30T08:32:04.426Z,27.65
2023-08-30T08:37:09.344Z,25.83
2023-08-30T08:42:14.419Z,24.29
2023-08-30T08:47:22.337Z,23.58
2023-08-30T08:52:33.045Z,23.15
2023-08-30T08:57:44.376Z,22.89
2023-08-30T09:02:48.854Z,22.78
2023-08-30T09:07:55.630Z,22.62
2023-08-30T09:12:59.646Z,22.85
2023-08-30T09:18:03.927Z,22.94
2023-08-30T09:23:20.141Z,22.39
2023-08-30T09:28:24.642Z,22.35
2023-08-30T09:33:35.640Z,22.64
2023-08-30T09:38:39.588Z,22.73
2023-08-30T09:43:49.500Z,22.46
2023-08-30T09:48:57.684Z,22.61
2023-08-30T09:54:08.825Z,24.56
2023-08-30T09:59:17.528Z,25.32
2023-08-30T10:04:22.924Z,24.28
2023-08-30T10:09:27.488Z,23.30
2023-08-30T10:14:31.734Z,22.61
2023-08-30T10:19:36.595Z,22.23
2023-08-30T10:25:02.095Z,22.24
2023-08-30T10:30:11.672Z,22.08
2023-08-30T10:35:17.610Z,21.79
2023-08-30T10:40:24.928Z,21.58
2023-08-30T10:45:29.164Z,21.39
2023-08-30T10:50:35.243Z,21.29
2023-08-30T10:55:39.249Z,21.32
2023-08-30T11:00:46.701Z,21.05
2023-08-30T11:05:51.635Z,21.49
2023-08-30T11:11:06.957Z,21.45
2023-08-30T11:16:11.218Z,20.98
2023-08-30T11:21:15.089Z,20.98
2023-08-30T11:26:19.168Z,20.97
2023-08-30T11:31:30.026Z,20.94
2023-08-30T11:36:37.302Z,20.87
2023-08-30T11:41:41.915Z,20.74
2023-08-30T11:46:46.284Z,20.74
2023-08-30T11:51:50.462Z,20.65
2023-08-30T11:56:56.977Z,20.58
2023-08-30T12:02:01.080Z,20.50
2023-08-30T12:07:06.529Z,20.34
2023-08-30T12:12:13.936Z,20.38
2023-08-30T12:17:17.906Z,20.34
2023-08-30T12:22:22.078Z,20.23
2023-08-30T12:27:25.945Z,20.21
2023-08-30T12:32:30.171Z,19.94
2023-08-30T12:37:34.304Z,19.98
2023-08-30T12:42:39.052Z,19.87
2023-08-30T12:47:43.500Z,19.77
2023-08-30T12:52:47.435Z,19.68
2023-08-30T12:57:51.819Z,19.60
2023-08-30T13:02:56.343Z,19.49
2023-08-30T13:08:04.432Z,19.41
2023-08-30T13:13:08.757Z,19.32
2023-08-30T13:18:13.269Z,19.20
2023-08-30T13:23:17.185Z,19.12
2023-08-30T13:28:21.445Z,18.97
2023-08-30T13:33:25.688Z,18.84
2023-08-30T13:38:30.466Z,18.75
2023-08-30T13:43:34.724Z,18.66
2023-08-30T13:48:38.656Z,18.61
2023-08-30T13:53:42.665Z,18.50
2023-08-30T13:58:46.823Z,18.32
2023-08-30T14:03:50.994Z,18.08
2023-08-30T14:08:55.025Z,18.13
2023-08-30T14:13:59.008Z,18.16
2023-08-30T14:19:07.372Z,18.15
2023-08-30T14:24:11.618Z,17.83
2023-08-30T14:29:15.560Z,17.96
2023-08-30T14:34:22.180Z,17.92
2023-08-30T14:39:26.356Z,17.88
2023-08-30T14:44:30.452Z,17.58
2023-08-30T14:49:34.760Z,17.77
2023-08-30T14:54:41.493Z,17.69
2023-08-30T14:59:45.472Z,17.30
2023-08-30T15:04:49.581Z,17.35
2023-08-30T15:09:53.747Z,17.25
2023-08-30T15:14:58.104Z,17.19
2023-08-30T15:20:02.295Z,17.08
2023-08-30T15:25:08.441Z,16.93
2023-08-30T15:30:14.161Z,16.89
2023-08-30T15:35:18.445Z,16.71
2023-08-30T15:40:22.549Z,16.66
2023-08-30T15:45:26.606Z,16.57
2023-08-30T15:50:30.644Z,16.45
2023-08-30T15:55:35.303Z,16.37
2023-08-30T16:00:42.542Z,16.26
2023-08-30T16:05:46.924Z,16.27
2023-08-30T16:10:55.299Z,16.26
2023-08-30T16:15:59.404Z,16.22
2023-08-30T16:21:03.662Z,16.18
2023-08-30T16:26:07.622Z,16.21
2023-08-30T16:31:14.328Z,16.20
2023-08-30T16:36:18.347Z,16.18
2023-08-30T16:41:22.353Z,16.18
2023-08-30T16:46:26.413Z,16.16
2023-08-30T16:51:30.575Z,16.16
2023-08-30T16:56:34.647Z,16.14
2023-08-30T17:01:38.629Z,16.14
2023-08-30T17:06:42.916Z,16.10
2023-08-30T17:11:46.795Z,15.80
2023-08-30T17:16:51.706Z,16.07
2023-08-30T17:21:57.443Z,16.02
2023-08-30T17:27:05.124Z,15.99
2023-08-30T17:32:11.198Z,15.91
2023-08-30T17:37:15.577Z,15.90
2023-08-30T17:42:19.525Z,15.99
2023-08-30T17:47:23.667Z,15.98
2023-08-30T17:52:27.720Z,16.00
2023-08-30T17:57:34.223Z,16.03
2023-08-30T18:02:38.565Z,15.96
2023-08-30T18:07:43.182Z,16.00
2023-08-30T18:12:47.265Z,16.08
2023-08-30T18:17:52.457Z,16.03
2023-08-30T18:22:56.548Z,16.07
2023-08-30T18:28:00.653Z,16.10
2023-08-30T18:33:06.836Z,16.04
2023-08-30T18:38:10.956Z,16.06
2023-08-30T18:43:15.248Z,16.02
2023-08-30T18:48:19.088Z,16.06
2023-08-30T18:53:23.151Z,16.06
2023-08-30T18:58:27.383Z,15.88
2023-08-30T19:03:32.600Z,15.99
2023-08-30T19:08:36.996Z,16.03
2023-08-30T19:13:41.396Z,16.04
2023-08-30T19:18:49.146Z,16.07
2023-08-30T19:23:53.642Z,16.12
2023-08-30T19:28:58.386Z,16.18
2023-08-30T19:34:02.736Z,16.22
2023-08-30T19:39:08.720Z,16.24
2023-08-30T19:44:12.840Z,16.19
2023-08-30T19:49:17.680Z,16.28
2023-08-30T19:54:24.879Z,16.27
2023-08-30T19:59:28.945Z,16.20
2023-08-30T20:04:32.946Z,16.26
2023-08-30T20:09:38.488Z,16.25
2023-08-30T20:14:42.482Z,16.31
2023-08-30T20:19:46.515Z,16.30
2023-08-30T20:24:50.643Z,16.28
2023-08-30T20:29:54.680Z,16.27
2023-08-30T20:35:00.465Z,16.28
2023-08-30T20:40:04.970Z,16.38
2023-08-30T20:45:10.687Z,16.30
2023-08-30T20:50:14.979Z,16.38
2023-08-30T20:55:26.898Z,16.38
2023-08-30T21:00:39.719Z,16.40
2023-08-30T21:05:43.763Z,16.33
2023-08-30T21:10:49.506Z,16.37
2023-08-30T21:15:53.624Z,16.36
2023-08-30T21:21:01.600Z,16.35
2023-08-30T21:26:07.069Z,16.34
2023-08-30T21:31:11.047Z,16.31
2023-08-30T21:36:15.427Z,16.29
2023-08-30T21:41:21.576Z,16.36
2023-08-30T21:46:25.809Z,16.37
2023-08-30T21:51:36.470Z,16.35
2023-08-30T21:56:40.362Z,16.33
2023-08-30T22:01:44.825Z,16.38
2023-08-30T22:06:48.786Z,16.38
2023-08-30T22:11:52.894Z,16.29
2023-08-30T22:16:56.900Z,16.34
2023-08-30T22:22:01.211Z,16.33
2023-08-30T22:27:05.476Z,16.29
2023-08-30T22:32:09.413Z,16.22
2023-08-30T22:37:13.759Z,16.23
2023-08-30T22:42:17.757Z,16.26
2023-08-30T22:47:21.900Z,16.28
2023-08-30T22:52:25.882Z,16.25
2023-08-30T22:57:30.127Z,16.18
2023-08-30T23:02:35.567Z,16.24
2023-08-30T23:07:39.658Z,16.24
2023-08-30T23:12:44.158Z,16.16
2023-08-30T23:17:48.949Z,16.23
2023-08-30T23:22:53.397Z,16.22
2023-08-30T23:28:01.976Z,16.20
2023-08-30T23:33:06.522Z,16.20
2023-08-30T23:38:10.544Z,16.23
2023-08-30T23:43:14.860Z,15.92
2023-08-30T23:48:20.127Z,16.14
2023-08-30T23:53:24.189Z,16.22
2023-08-30T23:58:28.045Z,16.17
